createdAt,value
2022-11-24T00:04:12.915Z,6.45
2022-11-24T00:06:43.162Z,7.82
2022-11-24T00:09:13.798Z,8.77
2022-11-24T00:14:17.166Z,10.32
2022-11-24T00:16:47.195Z,15.05
2022-11-24T00:19:19.955Z,10.23
2022-11-24T00:21:50.100Z,9.00
2022-11-24T00:24:20.475Z,7.88
2022-11-24T00:26:53.294Z,13.07
2022-11-24T00:29:23.717Z,7.65
2022-11-24T00:31:53.738Z,13.05
2022-11-24T00:34:24.201Z,10.23
2022-11-24T00:36:54.182Z,11.20
2022-11-24T00:39:24.558Z,12.63
2022-11-24T00:41:57.375Z,9.80
2022-11-24T00:44:27.820Z,4.97
2022-11-24T00:46:57.828Z,10.90
2022-11-24T00:49:28.395Z,9.15
2022-11-24T00:51:58.349Z,9.38
2022-11-24T00:54:28.210Z,12.80
2022-11-24T00:56:59.399Z,14.00
2022-11-24T00:59:29.499Z,10.73
2022-11-24T01:01:59.535Z,11.38
2022-11-24T01:04:30.115Z,7.63
2022-11-24T01:07:00.124Z,12.82
2022-11-24T01:09:30.676Z,15.00
2022-11-24T01:12:03.478Z,8.85
2022-11-24T01:14:37.509Z,12.65
2022-11-24T01:17:07.676Z,12.23
2022-11-24T01:19:38.232Z,13.48
2022-11-24T01:22:08.489Z,12.10
2022-11-24T01:24:38.909Z,11.40
2022-11-24T01:27:09.097Z,12.43
2022-11-24T01:29:39.710Z,8.18
2022-11-24T01:32:10.263Z,9.95
2022-11-24T01:34:40.938Z,10.38
2022-11-24T01:39:41.906Z,15.07
2022-11-24T01:42:12.331Z,12.90
2022-11-24T01:44:46.200Z,11.77
2022-11-24T01:47:21.738Z,19.25
2022-11-24T01:49:57.800Z,13.70
2022-11-24T01:52:43.022Z,11.35
2022-11-24T01:55:22.379Z,13.75
2022-11-24T01:58:00.892Z,11.57
2022-11-24T02:00:31.511Z,16.23
2022-11-24T02:03:02.181Z,15.38
2022-11-24T02:05:40.278Z,17.08
2022-11-24T02:08:37.101Z,19.05
2022-11-24T02:11:08.620Z,14.80
2022-11-24T02:13:42.425Z,12.75
2022-11-24T02:16:14.072Z,12.25
2022-11-24T02:18:45.058Z,7.90
2022-11-24T02:21:17.413Z,9.80
2022-11-24T02:24:09.364Z,11.43
2022-11-24T02:26:44.593Z,14.35
2022-11-24T02:29:16.121Z,13.82
2022-11-24T02:31:52.620Z,24.80
2022-11-24T02:34:22.706Z,9.32
2022-11-24T02:36:53.338Z,7.70
2022-11-24T02:39:23.635Z,17.98
2022-11-24T02:42:01.575Z,9.45
2022-11-24T02:44:37.629Z,9.00
2022-11-24T02:47:11.186Z,9.73
2022-11-24T02:49:42.245Z,10.32
2022-11-24T02:52:12.773Z,10.07
2022-11-24T02:54:43.083Z,12.77
2022-11-24T02:57:13.895Z,13.93
2022-11-24T02:59:46.839Z,8.30
2022-11-24T03:02:17.477Z,11.15
2022-11-24T03:04:47.833Z,10.18
2022-11-24T03:07:18.399Z,9.50
2022-11-24T03:09:48.525Z,9.90
2022-11-24T03:12:18.978Z,6.57
2022-11-24T03:14:48.975Z,13.48
2022-11-24T03:17:19.654Z,11.00
2022-11-24T03:19:49.679Z,9.57
2022-11-24T03:22:20.344Z,12.38
2022-11-24T03:24:50.585Z,7.05
2022-11-24T03:27:22.073Z,11.88
2022-11-24T03:29:52.097Z,9.40
2022-11-24T03:32:22.614Z,13.00
2022-11-24T03:34:53.403Z,13.30
2022-11-24T03:37:23.997Z,26.00
2022-11-24T03:39:54.042Z,97.45
2022-11-24T03:42:25.112Z,77.65
2022-11-24T03:44:55.403Z,71.50
2022-11-24T03:47:25.905Z,30.88
2022-11-24T03:49:55.992Z,28.48
2022-11-24T03:52:27.967Z,14.60
2022-11-24T03:54:58.114Z,15.80
2022-11-24T03:57:28.680Z,18.65
2022-11-24T03:59:58.840Z,15.98
2022-11-24T04:02:30.604Z,36.30
2022-11-24T04:05:00.634Z,102.97
2022-11-24T04:07:31.299Z,47.20
2022-11-24T04:10:01.343Z,24.45
2022-11-24T04:12:46.106Z,16.25
2022-11-24T04:15:19.488Z,24.00
2022-11-24T04:17:51.801Z,129.38
2022-11-24T04:20:22.755Z,74.03
2022-11-24T04:25:23.615Z,8.48
2022-11-24T04:27:55.450Z,9.70
2022-11-24T04:30:27.576Z,10.82
2022-11-24T04:32:58.534Z,11.02
2022-11-24T04:35:29.577Z,9.65
2022-11-24T04:38:03.562Z,11.93
2022-11-24T04:40:34.315Z,8.35
2022-11-24T04:43:05.080Z,6.28
2022-11-24T04:45:35.463Z,11.05
2022-11-24T04:48:05.946Z,13.48
2022-11-24T04:50:37.232Z,19.23
2022-11-24T04:53:07.514Z,52.53
2022-11-24T04:55:40.850Z,324.98
2022-11-24T04:58:14.744Z,194.55
2022-11-24T05:00:45.205Z,197.73
2022-11-24T05:03:15.176Z,140.48
2022-11-24T05:08:14.756Z,168.98
2022-11-24T05:10:44.877Z,181.55
2022-11-24T05:13:16.144Z,93.32
2022-11-24T05:15:46.319Z,38.65
2022-11-24T05:18:17.742Z,46.03
2022-11-24T05:20:47.785Z,61.60
2022-11-24T05:25:48.053Z,96.05
2022-11-24T05:28:18.931Z,119.20
2022-11-24T05:30:49.002Z,108.03
2022-11-24T05:35:54.047Z,95.55
2022-11-24T05:40:54.901Z,121.35
2022-11-24T05:45:54.747Z,225.38
2022-11-24T05:48:24.698Z,142.27
2022-11-24T05:50:58.884Z,118.10
2022-11-24T05:53:31.683Z,236.88
2022-11-24T05:56:05.425Z,158.05
2022-11-24T05:58:35.524Z,97.20
2022-11-24T06:01:08.688Z,72.95
2022-11-24T06:03:38.766Z,130.30
2022-11-24T06:08:38.704Z,123.10
2022-11-24T06:11:20.466Z,7.32
2022-11-24T06:13:50.846Z,7.32
2022-11-24T06:16:21.100Z,9.43
2022-11-24T06:18:51.515Z,10.43
2022-11-24T06:21:21.541Z,10.32
2022-11-24T06:23:51.903Z,10.00
2022-11-24T06:26:24.269Z,12.68
2022-11-24T06:28:54.713Z,17.00
2022-11-24T06:31:24.945Z,14.70
2022-11-24T06:33:55.414Z,42.72
2022-11-24T06:36:26.692Z,187.02
2022-11-24T06:38:57.140Z,150.15
2022-11-24T06:41:27.214Z,192.20
2022-11-24T06:46:26.887Z,227.57
2022-11-24T06:48:56.903Z,210.30
2022-11-24T06:53:57.669Z,129.95
2022-11-24T06:56:31.537Z,22.75
2022-11-24T06:59:01.660Z,20.27
2022-11-24T07:01:33.419Z,75.78
2022-11-24T07:04:03.593Z,127.32
2022-11-24T07:06:33.957Z,119.95
2022-11-24T07:09:06.516Z,69.15
2022-11-24T07:14:07.051Z,71.63
2022-11-24T07:16:37.986Z,89.72
2022-11-24T07:19:12.187Z,111.60
2022-11-24T07:21:42.571Z,148.20
2022-11-24T07:24:12.701Z,149.05
2022-11-24T07:29:12.568Z,84.72
2022-11-24T07:31:43.760Z,23.45
2022-11-24T07:34:15.910Z,29.90
2022-11-24T07:36:46.297Z,24.40
2022-11-24T07:39:17.235Z,13.77
2022-11-24T07:44:17.164Z,100.65
2022-11-24T07:46:48.332Z,83.90
2022-11-24T07:49:19.782Z,157.15
2022-11-24T07:51:49.886Z,22.48
2022-11-24T07:56:52.690Z,5.70
2022-11-24T07:59:23.044Z,6.47
2022-11-24T08:01:53.092Z,15.18
2022-11-24T08:04:23.686Z,10.95
2022-11-24T08:06:53.726Z,11.38
2022-11-24T08:09:24.082Z,22.25
2022-11-24T08:11:54.205Z,10.52
2022-11-24T08:14:24.642Z,9.30
2022-11-24T08:16:57.379Z,7.05
2022-11-24T08:19:27.807Z,4.90
2022-11-24T08:21:57.910Z,6.78
2022-11-24T08:27:01.141Z,33.63
2022-11-24T08:29:32.221Z,20.52
2022-11-24T08:32:02.258Z,16.27
2022-11-24T08:34:32.988Z,17.45
2022-11-24T08:39:35.342Z,27.55
2022-11-24T08:42:05.659Z,13.05
2022-11-24T08:44:36.543Z,29.33
2022-11-24T08:47:07.012Z,6.43
2022-11-24T08:52:06.813Z,7.47
2022-11-24T08:54:37.031Z,8.85
2022-11-24T08:57:07.673Z,13.98
2022-11-24T08:59:37.724Z,8.25
2022-11-24T09:02:08.483Z,10.85
2022-11-24T09:04:39.257Z,23.00
2022-11-24T09:07:10.007Z,18.83
2022-11-24T09:12:14.262Z,19.83
2022-11-24T09:14:45.113Z,12.55
2022-11-24T09:17:15.231Z,12.25
2022-11-24T09:19:45.613Z,19.13
2022-11-24T09:22:15.663Z,15.48
2022-11-24T09:24:46.263Z,76.53
2022-11-24T09:27:16.334Z,27.63
2022-11-24T09:29:46.970Z,123.35
2022-11-24T09:32:17.116Z,23.48
2022-11-24T09:34:47.469Z,64.90
2022-11-24T09:37:17.290Z,28.35
2022-11-24T09:39:47.664Z,30.15
2022-11-24T09:42:39.380Z,26.38
2022-11-24T09:45:13.566Z,25.55
2022-11-24T09:47:52.953Z,29.05
2022-11-24T09:50:29.577Z,21.83
2022-11-24T09:53:30.574Z,25.80
2022-11-24T09:58:54.757Z,23.10
2022-11-24T10:01:40.378Z,28.38
2022-11-24T10:04:18.539Z,23.05
2022-11-24T10:07:03.561Z,19.98
2022-11-24T10:09:36.363Z,20.85
2022-11-24T10:12:42.645Z,18.70
2022-11-24T10:15:12.582Z,14.65
2022-11-24T10:18:02.708Z,13.00
2022-11-24T10:20:32.628Z,11.98
2022-11-24T10:23:38.364Z,13.35
2022-11-24T10:26:24.518Z,11.13
2022-11-24T10:28:59.102Z,14.02
2022-11-24T10:31:42.727Z,9.25
2022-11-24T10:34:22.595Z,7.68
2022-11-24T10:37:32.331Z,8.73
2022-11-24T10:43:32.432Z,11.40
2022-11-24T10:46:11.761Z,10.77
2022-11-24T10:48:54.731Z,7.30
2022-11-24T10:51:46.481Z,6.80
2022-11-24T10:54:22.474Z,9.75
2022-11-24T10:56:54.576Z,7.80
2022-11-24T10:59:27.127Z,7.05
2022-11-24T11:01:57.731Z,10.23
2022-11-24T11:04:36.396Z,7.18
2022-11-24T11:07:10.907Z,8.02
2022-11-24T11:09:40.976Z,7.05
2022-11-24T11:15:26.016Z,3.85
2022-11-24T11:18:02.143Z,5.55
2022-11-24T11:20:36.333Z,7.35
2022-11-24T11:23:18.024Z,5.05
2022-11-24T11:25:48.023Z,10.00
2022-11-24T11:28:31.662Z,6.90
2022-11-24T11:34:03.710Z,9.80
2022-11-24T11:36:38.842Z,5.30
2022-11-24T11:39:12.498Z,10.23
2022-11-24T11:41:46.581Z,4.78
2022-11-24T11:44:34.279Z,11.27
2022-11-24T11:47:15.741Z,5.78
2022-11-24T11:49:46.637Z,5.25
2022-11-24T11:52:34.870Z,6.32
2022-11-24T11:55:26.828Z,4.63
2022-11-24T11:58:32.602Z,4.88
2022-11-24T12:01:40.292Z,5.95
2022-11-24T12:04:25.347Z,2.92
2022-11-24T12:07:09.221Z,5.30
2022-11-24T12:10:16.743Z,4.00
2022-11-24T12:13:34.341Z,2.38
2022-11-24T12:16:21.150Z,1.98
2022-11-24T12:18:58.432Z,4.80
2022-11-24T12:21:44.648Z,4.50
2022-11-24T12:24:49.771Z,3.60
2022-11-24T12:28:01.359Z,4.25
2022-11-24T12:30:59.582Z,5.75
2022-11-24T12:33:39.350Z,3.25
2022-11-24T12:36:18.011Z,4.70
2022-11-24T12:39:46.128Z,3.42
2022-11-24T12:42:28.669Z,2.92
2022-11-24T12:45:14.766Z,2.50
2022-11-24T12:48:26.871Z,3.13
2022-11-24T12:50:57.697Z,4.07
2022-11-24T12:53:33.635Z,3.83
2022-11-24T12:56:14.629Z,3.92
2022-11-24T12:58:51.249Z,1.58
2022-11-24T13:04:17.531Z,2.35
2022-11-24T13:07:04.019Z,2.63
2022-11-24T13:09:34.535Z,2.78
2022-11-24T13:12:14.657Z,1.92
2022-11-24T13:14:47.589Z,1.45
2022-11-24T13:17:50.242Z,3.35
2022-11-24T13:20:36.251Z,3.40
2022-11-24T13:23:10.737Z,4.05
2022-11-24T13:26:16.578Z,3.60
2022-11-24T13:29:27.363Z,4.63
2022-11-24T13:32:18.783Z,1.73
2022-11-24T13:34:56.082Z,5.32
2022-11-24T13:37:35.060Z,3.40
2022-11-24T13:40:24.487Z,4.15
2022-11-24T13:42:58.423Z,2.90
2022-11-24T13:45:41.420Z,1.67
2022-11-24T13:48:23.325Z,1.75
2022-11-24T13:50:59.709Z,3.50
2022-11-24T13:53:39.830Z,4.05
2022-11-24T13:56:19.038Z,4.07
2022-11-24T13:58:56.442Z,3.58
2022-11-24T14:01:30.867Z,3.03
2022-11-24T14:04:32.306Z,5.25
2022-11-24T14:07:09.170Z,2.90
2022-11-24T14:09:48.986Z,3.30
2022-11-24T14:12:27.953Z,4.18
2022-11-24T14:15:26.040Z,4.15
2022-11-24T14:17:57.694Z,1.40
2022-11-24T14:20:29.714Z,3.45
2022-11-24T14:23:01.865Z,3.13
2022-11-24T14:25:33.523Z,3.13
2022-11-24T14:28:04.118Z,1.92
2022-11-24T14:30:37.354Z,3.58
2022-11-24T14:33:17.826Z,1.50
2022-11-24T14:35:53.691Z,3.67
2022-11-24T14:38:24.283Z,2.05
2022-11-24T14:40:56.326Z,2.53
2022-11-24T14:43:34.519Z,1.98
2022-11-24T14:46:05.632Z,2.28
2022-11-24T14:48:41.903Z,1.95
2022-11-24T14:51:27.046Z,1.83
2022-11-24T14:54:22.741Z,6.15
2022-11-24T14:57:09.912Z,3.15
2022-11-24T14:59:40.718Z,2.97
2022-11-24T15:02:47.374Z,2.42
2022-11-24T15:05:19.029Z,4.82
2022-11-24T15:07:51.359Z,2.08
2022-11-24T15:10:34.468Z,2.15
2022-11-24T15:13:08.810Z,3.92
2022-11-24T15:15:40.829Z,4.00
2022-11-24T15:18:27.595Z,2.22
2022-11-24T15:20:58.341Z,3.33
2022-11-24T15:23:33.135Z,2.75
2022-11-24T15:26:03.793Z,1.75
2022-11-24T15:28:37.350Z,2.08
2022-11-24T15:31:12.844Z,3.35
2022-11-24T15:33:43.680Z,2.45
2022-11-24T15:36:15.286Z,1.75
2022-11-24T15:38:45.303Z,2.25
2022-11-24T15:41:24.276Z,1.60
2022-11-24T15:44:00.404Z,2.55
2022-11-24T15:46:38.769Z,2.20
2022-11-24T15:49:09.448Z,0.95
2022-11-24T15:51:44.143Z,1.48
2022-11-24T15:54:20.065Z,1.50
2022-11-24T15:56:50.214Z,3.10
2022-11-24T15:59:21.399Z,3.67
2022-11-24T16:01:51.915Z,1.88
2022-11-24T16:04:22.378Z,2.63
2022-11-24T16:06:52.165Z,1.48
2022-11-24T16:09:22.706Z,3.75
2022-11-24T16:11:52.762Z,1.45
2022-11-24T16:14:23.231Z,2.13
2022-11-24T16:16:53.380Z,0.85
2022-11-24T16:19:23.967Z,3.80
2022-11-24T16:21:54.190Z,3.90
2022-11-24T16:24:24.716Z,3.45
2022-11-24T16:26:54.800Z,2.80
2022-11-24T16:29:25.433Z,2.97
2022-11-24T16:31:55.457Z,3.35
2022-11-24T16:34:28.625Z,2.92
2022-11-24T16:36:59.191Z,2.88
2022-11-24T16:39:29.131Z,2.38
2022-11-24T16:41:59.543Z,1.50
2022-11-24T16:44:29.973Z,2.65
2022-11-24T16:47:00.328Z,5.07
2022-11-24T16:49:30.242Z,3.10
2022-11-24T16:52:01.359Z,2.00
2022-11-24T16:54:32.886Z,3.45
2022-11-24T16:57:03.626Z,2.38
2022-11-24T16:59:33.594Z,6.05
2022-11-24T17:02:04.072Z,2.05
2022-11-24T17:04:34.624Z,1.95
2022-11-24T17:07:05.313Z,2.55
2022-11-24T17:09:40.276Z,6.40
2022-11-24T17:12:11.110Z,3.47
2022-11-24T17:14:41.172Z,2.78
2022-11-24T17:17:11.656Z,3.42
2022-11-24T17:19:41.646Z,2.80
2022-11-24T17:22:12.076Z,3.72
2022-11-24T17:24:42.069Z,2.20
2022-11-24T17:27:12.510Z,2.22
2022-11-24T17:29:42.437Z,4.70
2022-11-24T17:32:12.293Z,1.95
2022-11-24T17:34:45.329Z,2.25
2022-11-24T17:37:15.351Z,2.90
2022-11-24T17:40:00.003Z,2.60
2022-11-24T17:42:35.710Z,2.25
2022-11-24T17:45:06.009Z,2.17
2022-11-24T17:47:36.446Z,3.25
2022-11-24T17:50:06.558Z,4.93
2022-11-24T17:52:37.378Z,3.35
2022-11-24T17:55:07.517Z,1.48
2022-11-24T17:57:38.446Z,1.42
2022-11-24T18:00:09.583Z,2.45
2022-11-24T18:02:42.702Z,2.53
2022-11-24T18:05:12.690Z,4.32
2022-11-24T18:07:44.737Z,2.85
2022-11-24T18:10:14.720Z,1.77
2022-11-24T18:12:45.253Z,4.10
2022-11-24T18:15:15.384Z,1.55
2022-11-24T18:17:45.958Z,3.70
2022-11-24T18:20:17.478Z,3.20
2022-11-24T18:23:05.121Z,5.57
2022-11-24T18:25:38.312Z,2.33
2022-11-24T18:28:08.780Z,5.18
2022-11-24T18:30:38.937Z,2.20
2022-11-24T18:33:09.446Z,4.13
2022-11-24T18:35:40.862Z,2.45
2022-11-24T18:38:11.870Z,3.70
2022-11-24T18:40:42.260Z,2.72
2022-11-24T18:43:12.767Z,3.72
2022-11-24T18:45:42.908Z,6.00
2022-11-24T18:48:13.670Z,2.70
2022-11-24T18:50:44.053Z,5.95
2022-11-24T18:53:14.683Z,4.57
2022-11-24T18:55:44.875Z,4.95
2022-11-24T18:58:19.284Z,3.17
2022-11-24T19:00:49.397Z,2.70
2022-11-24T19:03:19.946Z,3.20
2022-11-24T19:05:50.035Z,3.17
2022-11-24T19:08:20.979Z,3.78
2022-11-24T19:10:51.063Z,2.35
2022-11-24T19:13:21.896Z,5.60
2022-11-24T19:15:53.164Z,5.25
2022-11-24T19:18:23.846Z,8.15
2022-11-24T19:20:54.461Z,3.75
2022-11-24T19:23:28.217Z,5.75
2022-11-24T19:26:04.538Z,3.95
2022-11-24T19:28:35.515Z,5.22
2022-11-24T19:31:10.737Z,4.30
2022-11-24T19:33:42.151Z,5.00
2022-11-24T19:36:21.037Z,5.85
2022-11-24T19:38:56.518Z,2.75
2022-11-24T19:41:31.534Z,3.25
2022-11-24T19:44:02.436Z,4.50
2022-11-24T19:46:34.614Z,6.50
2022-11-24T19:49:05.971Z,4.88
2022-11-24T19:51:38.391Z,3.25
2022-11-24T19:54:14.078Z,6.82
2022-11-24T19:56:44.200Z,5.03
2022-11-24T19:59:20.474Z,5.43
2022-11-24T20:01:55.407Z,3.78
2022-11-24T20:04:26.552Z,2.97
2022-11-24T20:06:58.098Z,3.50
2022-11-24T20:09:29.748Z,3.42
2022-11-24T20:12:01.000Z,4.78
2022-11-24T20:14:31.257Z,5.35
2022-11-24T20:17:02.031Z,4.82
2022-11-24T20:19:33.854Z,10.23
2022-11-24T20:22:09.311Z,6.80
2022-11-24T20:25:09.318Z,2.20
2022-11-24T20:27:39.606Z,4.72
2022-11-24T20:30:11.186Z,5.82
2022-11-24T20:32:44.082Z,5.00
2022-11-24T20:35:18.313Z,3.15
2022-11-24T20:38:05.213Z,6.03
2022-11-24T20:41:09.591Z,5.60
2022-11-24T20:43:59.411Z,3.30
2022-11-24T20:46:58.928Z,4.32
2022-11-24T20:49:43.445Z,5.30
2022-11-24T20:52:18.730Z,5.07
2022-11-24T20:54:48.987Z,4.68
2022-11-24T20:57:19.684Z,6.22
2022-11-24T20:59:50.968Z,6.57
2022-11-24T21:02:22.286Z,7.85
2022-11-24T21:04:52.482Z,6.72
2022-11-24T21:07:23.039Z,5.18
2022-11-24T21:09:53.119Z,5.05
2022-11-24T21:12:23.574Z,3.13
2022-11-24T21:14:53.726Z,4.95
2022-11-24T21:17:24.274Z,7.53
2022-11-24T21:19:59.591Z,3.53
2022-11-24T21:22:31.379Z,2.38
2022-11-24T21:27:34.243Z,5.03
2022-11-24T21:30:04.689Z,5.30
2022-11-24T21:32:35.319Z,6.63
2022-11-24T21:35:05.613Z,7.63
2022-11-24T21:37:36.113Z,4.95
2022-11-24T21:40:06.942Z,6.40
2022-11-24T21:42:37.534Z,5.57
2022-11-24T21:45:11.788Z,4.90
2022-11-24T21:47:43.494Z,4.53
2022-11-24T21:50:13.662Z,3.70
2022-11-24T21:52:44.195Z,5.85
2022-11-24T21:55:14.280Z,10.45
2022-11-24T21:57:44.707Z,4.22
2022-11-24T22:00:15.590Z,5.60
2022-11-24T22:02:46.640Z,4.32
2022-11-24T22:05:16.881Z,7.55
2022-11-24T22:07:47.560Z,7.13
2022-11-24T22:10:18.423Z,6.47
2022-11-24T22:12:49.080Z,3.92
2022-11-24T22:15:19.383Z,7.57
2022-11-24T22:17:49.798Z,6.22
2022-11-24T22:22:49.125Z,4.65
2022-11-24T22:25:19.920Z,5.38
2022-11-24T22:27:49.987Z,4.70
2022-11-24T22:30:20.630Z,10.73
2022-11-24T22:32:55.867Z,3.88
2022-11-24T22:35:27.893Z,5.85
2022-11-24T22:37:58.720Z,5.10
2022-11-24T22:40:31.442Z,9.38
2022-11-24T22:43:01.288Z,5.68
2022-11-24T22:45:33.779Z,4.88
2022-11-24T22:48:05.127Z,5.10
2022-11-24T22:50:37.899Z,9.30
2022-11-24T22:53:08.707Z,6.07
2022-11-24T22:55:41.001Z,6.88
2022-11-24T22:58:11.311Z,8.05
2022-11-24T23:00:41.888Z,8.75
2022-11-24T23:03:12.063Z,7.40
2022-11-24T23:05:42.750Z,7.13
2022-11-24T23:10:42.194Z,8.15
2022-11-24T23:13:12.695Z,6.47
2022-11-24T23:18:12.077Z,5.70
2022-11-24T23:20:42.783Z,1.38
2022-11-24T23:23:13.255Z,8.02
2022-11-24T23:25:43.869Z,4.97
2022-11-24T23:28:14.012Z,7.00
2022-11-24T23:30:44.840Z,4.30
2022-11-24T23:35:44.201Z,4.28
2022-11-24T23:38:14.822Z,5.60
2022-11-24T23:43:14.162Z,5.43
2022-11-24T23:45:44.719Z,7.50
2022-11-24T23:48:14.877Z,6.82
2022-11-24T23:50:45.452Z,4.82
2022-11-24T23:55:45.273Z,7.50
2022-11-24T23:58:15.688Z,4.28
